sensor_id;sensor_type;location;lat;lon;timestamp;P1;durP1;ratioP1;P2;durP2;ratioP2
70543;SDS011;58097;48.364;-1.224;2023-05-14T00:00:22;23.65;;;15.15;;
70543;SDS011;58097;48.364;-1.224;2023-05-14T00:02:48;25.92;;;16.42;;
70543;SDS011;58097;48.364;-1.224;2023-05-14T00:05:13;24.95;;;16.23;;
70543;SDS011;58097;48.364;-1.224;2023-05-14T00:07:39;23.65;;;14.63;;
70543;SDS011;58097;48.364;-1.224;2023-05-14T00:10:05;30.88;;;15.88;;
70543;SDS011;58097;48.364;-1.224;2023-05-14T00:12:31;24.15;;;15.25;;
70543;SDS011;58097;48.364;-1.224;2023-05-14T00:14:56;24.45;;;15.88;;
70543;SDS011;58097;48.364;-1.224;2023-05-14T00:17:22;26.38;;;15.88;;
70543;SDS011;58097;48.364;-1.224;2023-05-14T00:19:47;27.55;;;17.13;;
70543;SDS011;58097;48.364;-1.224;2023-05-14T00:22:12;22.95;;;15.63;;
70543;SDS011;58097;48.364;-1.224;2023-05-14T00:24:38;26.45;;;17.67;;
70543;SDS011;58097;48.364;-1.224;2023-05-14T00:27:03;26.75;;;17.10;;
70543;SDS011;58097;48.364;-1.224;2023-05-14T00:29:29;29.63;;;16.70;;
70543;SDS011;58097;48.364;-1.224;2023-05-14T00:31:54;27.90;;;18.35;;
70543;SDS011;58097;48.364;-1.224;2023-05-14T00:34:20;31.05;;;18.55;;
70543;SDS011;58097;48.364;-1.224;2023-05-14T00:36:45;31.20;;;17.98;;
70543;SDS011;58097;48.364;-1.224;2023-05-14T00:39:10;28.15;;;18.13;;
70543;SDS011;58097;48.364;-1.224;2023-05-14T00:41:36;29.95;;;17.63;;
70543;SDS011;58097;48.364;-1.224;2023-05-14T00:44:02;28.70;;;18.02;;
70543;SDS011;58097;48.364;-1.224;2023-05-14T00:46:28;31.92;;;18.23;;
70543;SDS011;58097;48.364;-1.224;2023-05-14T00:48:54;27.63;;;18.75;;
70543;SDS011;58097;48.364;-1.224;2023-05-14T00:51:19;26.98;;;18.73;;
70543;SDS011;58097;48.364;-1.224;2023-05-14T00:53:45;28.35;;;18.10;;
70543;SDS011;58097;48.364;-1.224;2023-05-14T00:56:11;26.52;;;17.33;;
70543;SDS011;58097;48.364;-1.224;2023-05-14T00:58:37;32.63;;;18.38;;
70543;SDS011;58097;48.364;-1.224;2023-05-14T01:01:03;33.33;;;19.10;;
70543;SDS011;58097;48.364;-1.224;2023-05-14T01:03:29;37.10;;;20.63;;
70543;SDS011;58097;48.364;-1.224;2023-05-14T01:11:23;30.85;;;19.38;;
70543;SDS011;58097;48.364;-1.224;2023-05-14T01:16:32;28.70;;;19.48;;
70543;SDS011;58097;48.364;-1.224;2023-05-14T01:18:58;32.42;;;18.38;;
70543;SDS011;58097;48.364;-1.224;2023-05-14T01:21:37;32.72;;;19.63;;
70543;SDS011;58097;48.364;-1.224;2023-05-14T01:24:06;34.80;;;19.98;;
70543;SDS011;58097;48.364;-1.224;2023-05-14T01:26:32;28.48;;;18.83;;
70543;SDS011;58097;48.364;-1.224;2023-05-14T01:28:59;32.60;;;19.77;;
70543;SDS011;58097;48.364;-1.224;2023-05-14T01:31:37;40.42;;;19.55;;
70543;SDS011;58097;48.364;-1.224;2023-05-14T01:34:06;35.08;;;20.52;;
70543;SDS011;58097;48.364;-1.224;2023-05-14T01:36:33;33.08;;;20.23;;
70543;SDS011;58097;48.364;-1.224;2023-05-14T01:38:59;32.88;;;19.25;;
70543;SDS011;58097;48.364;-1.224;2023-05-14T01:41:26;30.70;;;18.88;;
70543;SDS011;58097;48.364;-1.224;2023-05-14T01:43:52;32.47;;;19.15;;
70543;SDS011;58097;48.364;-1.224;2023-05-14T01:46:18;27.08;;;19.08;;
70543;SDS011;58097;48.364;-1.224;2023-05-14T01:48:43;34.42;;;20.25;;
70543;SDS011;58097;48.364;-1.224;2023-05-14T01:51:09;31.30;;;19.08;;
70543;SDS011;58097;48.364;-1.224;2023-05-14T01:53:34;30.92;;;18.90;;
70543;SDS011;58097;48.364;-1.224;2023-05-14T01:55:59;33.75;;;18.73;;
70543;SDS011;58097;48.364;-1.224;2023-05-14T01:58:25;32.25;;;19.70;;
70543;SDS011;58097;48.364;-1.224;2023-05-14T02:00:50;29.98;;;18.63;;
70543;SDS011;58097;48.364;-1.224;2023-05-14T02:03:16;28.80;;;18.67;;
70543;SDS011;58097;48.364;-1.224;2023-05-14T02:05:41;30.33;;;19.15;;
70543;SDS011;58097;48.364;-1.224;2023-05-14T02:08:06;28.77;;;19.10;;
70543;SDS011;58097;48.364;-1.224;2023-05-14T02:10:32;29.05;;;19.52;;
70543;SDS011;58097;48.364;-1.224;2023-05-14T02:12:57;31.20;;;20.42;;
70543;SDS011;58097;48.364;-1.224;2023-05-14T02:15:22;30.88;;;19.40;;
70543;SDS011;58097;48.364;-1.224;2023-05-14T02:17:48;33.97;;;20.40;;
70543;SDS011;58097;48.364;-1.224;2023-05-14T02:20:13;35.80;;;20.08;;
70543;SDS011;58097;48.364;-1.224;2023-05-14T02:22:38;35.13;;;21.05;;
70543;SDS011;58097;48.364;-1.224;2023-05-14T02:25:06;32.15;;;20.58;;
70543;SDS011;58097;48.364;-1.224;2023-05-14T02:27:32;34.00;;;22.83;;
70543;SDS011;58097;48.364;-1.224;2023-05-14T02:29:57;41.58;;;22.50;;
70543;SDS011;58097;48.364;-1.224;2023-05-14T02:32:24;41.08;;;23.25;;
70543;SDS011;58097;48.364;-1.224;2023-05-14T02:34:51;46.08;;;23.88;;
70543;SDS011;58097;48.364;-1.224;2023-05-14T02:37:16;42.30;;;23.70;;
70543;SDS011;58097;48.364;-1.224;2023-05-14T02:39:41;45.13;;;25.58;;
70543;SDS011;58097;48.364;-1.224;2023-05-14T02:42:07;44.63;;;24.75;;
70543;SDS011;58097;48.364;-1.224;2023-05-14T02:44:32;52.67;;;28.17;;
70543;SDS011;58097;48.364;-1.224;2023-05-14T02:46:57;47.72;;;25.02;;
70543;SDS011;58097;48.364;-1.224;2023-05-14T02:49:23;49.78;;;26.30;;
70543;SDS011;58097;48.364;-1.224;2023-05-14T02:51:48;48.53;;;25.92;;
70543;SDS011;58097;48.364;-1.224;2023-05-14T02:54:13;48.33;;;25.15;;
70543;SDS011;58097;48.364;-1.224;2023-05-14T02:56:40;44.30;;;24.08;;
70543;SDS011;58097;48.364;-1.224;2023-05-14T02:59:06;50.33;;;27.80;;
70543;SDS011;58097;48.364;-1.224;2023-05-14T03:01:31;41.17;;;23.08;;
70543;SDS011;58097;48.364;-1.224;2023-05-14T03:03:56;40.90;;;23.73;;
70543;SDS011;58097;48.364;-1.224;2023-05-14T03:06:22;44.08;;;26.05;;
70543;SDS011;58097;48.364;-1.224;2023-05-14T03:08:47;48.58;;;26.02;;
70543;SDS011;58097;48.364;-1.224;2023-05-14T03:11:12;44.25;;;23.70;;
70543;SDS011;58097;48.364;-1.224;2023-05-14T03:13:38;49.42;;;26.08;;
70543;SDS011;58097;48.364;-1.224;2023-05-14T03:16:03;52.63;;;24.83;;
70543;SDS011;58097;48.364;-1.224;2023-05-14T03:18:28;49.33;;;25.67;;
70543;SDS011;58097;48.364;-1.224;2023-05-14T03:20:54;45.40;;;25.13;;
70543;SDS011;58097;48.364;-1.224;2023-05-14T03:23:20;45.88;;;24.58;;
70543;SDS011;58097;48.364;-1.224;2023-05-14T03:25:45;47.72;;;24.35;;
70543;SDS011;58097;48.364;-1.224;2023-05-14T03:28:11;42.97;;;22.00;;
70543;SDS011;58097;48.364;-1.224;2023-05-14T03:30:36;46.03;;;24.27;;
70543;SDS011;58097;48.364;-1.224;2023-05-14T03:33:01;49.40;;;25.50;;
70543;SDS011;58097;48.364;-1.224;2023-05-14T03:35:27;56.22;;;25.58;;
70543;SDS011;58097;48.364;-1.224;2023-05-14T03:37:52;46.40;;;24.88;;
70543;SDS011;58097;48.364;-1.224;2023-05-14T03:40:18;45.05;;;23.40;;
70543;SDS011;58097;48.364;-1.224;2023-05-14T03:42:43;44.35;;;23.27;;
70543;SDS011;58097;48.364;-1.224;2023-05-14T03:45:08;40.38;;;24.02;;
70543;SDS011;58097;48.364;-1.224;2023-05-14T03:47:34;47.05;;;25.45;;
70543;SDS011;58097;48.364;-1.224;2023-05-14T03:49:59;41.70;;;22.75;;
70543;SDS011;58097;48.364;-1.224;2023-05-14T03:52:25;41.78;;;23.25;;
70543;SDS011;58097;48.364;-1.224;2023-05-14T03:54:50;44.40;;;24.92;;
70543;SDS011;58097;48.364;-1.224;2023-05-14T03:57:15;41.45;;;24.27;;
70543;SDS011;58097;48.364;-1.224;2023-05-14T03:59:41;44.28;;;24.27;;
70543;SDS011;58097;48.364;-1.224;2023-05-14T04:02:06;43.75;;;22.10;;
70543;SDS011;58097;48.364;-1.224;2023-05-14T04:04:31;43.50;;;23.45;;
70543;SDS011;58097;48.364;-1.224;2023-05-14T04:06:57;46.13;;;24.92;;
70543;SDS011;58097;48.364;-1.224;2023-05-14T04:09:22;41.50;;;23.30;;
70543;SDS011;58097;48.364;-1.224;2023-05-14T04:11:48;41.67;;;22.25;;
70543;SDS011;58097;48.364;-1.224;2023-05-14T04:14:13;44.83;;;24.73;;
70543;SDS011;58097;48.364;-1.224;2023-05-14T04:16:39;42.75;;;22.27;;
70543;SDS011;58097;48.364;-1.224;2023-05-14T04:19:04;43.20;;;22.70;;
70543;SDS011;58097;48.364;-1.224;2023-05-14T04:21:30;44.50;;;24.17;;
70543;SDS011;58097;48.364;-1.224;2023-05-14T04:23:55;43.40;;;22.85;;
70543;SDS011;58097;48.364;-1.224;2023-05-14T04:26:21;41.88;;;23.10;;
70543;SDS011;58097;48.364;-1.224;2023-05-14T04:28:46;43.08;;;22.95;;
70543;SDS011;58097;48.364;-1.224;2023-05-14T04:31:12;41.97;;;21.83;;
70543;SDS011;58097;48.364;-1.224;2023-05-14T04:33:37;41.10;;;23.42;;
70543;SDS011;58097;48.364;-1.224;2023-05-14T04:36:03;42.05;;;23.08;;
70543;SDS011;58097;48.364;-1.224;2023-05-14T04:38:29;47.00;;;23.90;;
70543;SDS011;58097;48.364;-1.224;2023-05-14T04:40:55;44.10;;;23.42;;
70543;SDS011;58097;48.364;-1.224;2023-05-14T04:43:21;42.92;;;22.27;;
70543;SDS011;58097;48.364;-1.224;2023-05-14T04:45:46;44.58;;;23.02;;
70543;SDS011;58097;48.364;-1.224;2023-05-14T04:48:12;49.63;;;24.10;;
70543;SDS011;58097;48.364;-1.224;2023-05-14T04:50:37;48.15;;;25.88;;
70543;SDS011;58097;48.364;-1.224;2023-05-14T04:53:02;47.33;;;25.67;;
70543;SDS011;58097;48.364;-1.224;2023-05-14T04:55:28;50.97;;;24.85;;
70543;SDS011;58097;48.364;-1.224;2023-05-14T04:57:53;53.55;;;26.05;;
70543;SDS011;58097;48.364;-1.224;2023-05-14T05:00:19;47.70;;;26.48;;
70543;SDS011;58097;48.364;-1.224;2023-05-14T05:02:45;56.67;;;25.92;;
70543;SDS011;58097;48.364;-1.224;2023-05-14T05:05:11;54.63;;;25.60;;
70543;SDS011;58097;48.364;-1.224;2023-05-14T05:07:36;48.45;;;24.98;;
70543;SDS011;58097;48.364;-1.224;2023-05-14T05:10:02;51.80;;;25.95;;
70543;SDS011;58097;48.364;-1.224;2023-05-14T05:12:27;44.42;;;24.02;;
70543;SDS011;58097;48.364;-1.224;2023-05-14T05:14:55;50.25;;;24.50;;
70543;SDS011;58097;48.364;-1.224;2023-05-14T05:17:21;47.90;;;25.90;;
70543;SDS011;58097;48.364;-1.224;2023-05-14T05:19:46;47.05;;;24.15;;
70543;SDS011;58097;48.364;-1.224;2023-05-14T05:22:12;43.60;;;22.80;;
70543;SDS011;58097;48.364;-1.224;2023-05-14T05:24:37;50.88;;;25.30;;
70543;SDS011;58097;48.364;-1.224;2023-05-14T05:27:03;47.10;;;24.15;;
70543;SDS011;58097;48.364;-1.224;2023-05-14T05:29:29;48.08;;;23.27;;
70543;SDS011;58097;48.364;-1.224;2023-05-14T05:31:54;44.53;;;22.38;;
70543;SDS011;58097;48.364;-1.224;2023-05-14T05:34:20;44.28;;;22.70;;
70543;SDS011;58097;48.364;-1.224;2023-05-14T05:36:45;44.47;;;24.10;;
70543;SDS011;58097;48.364;-1.224;2023-05-14T05:39:11;43.22;;;22.08;;
70543;SDS011;58097;48.364;-1.224;2023-05-14T05:41:36;50.38;;;24.63;;
70543;SDS011;58097;48.364;-1.224;2023-05-14T05:44:03;47.60;;;23.30;;
70543;SDS011;58097;48.364;-1.224;2023-05-14T05:46:28;53.72;;;24.23;;
70543;SDS011;58097;48.364;-1.224;2023-05-14T05:48:54;50.58;;;26.35;;
70543;SDS011;58097;48.364;-1.224;2023-05-14T05:51:19;52.38;;;25.52;;
70543;SDS011;58097;48.364;-1.224;2023-05-14T05:53:45;46.45;;;25.23;;
70543;SDS011;58097;48.364;-1.224;2023-05-14T05:56:10;55.78;;;25.48;;
70543;SDS011;58097;48.364;-1.224;2023-05-14T05:58:36;59.42;;;28.13;;
70543;SDS011;58097;48.364;-1.224;2023-05-14T06:01:01;54.53;;;24.63;;
70543;SDS011;58097;48.364;-1.224;2023-05-14T06:03:26;50.22;;;24.50;;
70543;SDS011;58097;48.364;-1.224;2023-05-14T06:05:52;47.90;;;24.35;;
70543;SDS011;58097;48.364;-1.224;2023-05-14T06:08:17;54.92;;;25.95;;
70543;SDS011;58097;48.364;-1.224;2023-05-14T06:10:43;56.05;;;28.27;;
70543;SDS011;58097;48.364;-1.224;2023-05-14T06:13:09;52.45;;;25.38;;
70543;SDS011;58097;48.364;-1.224;2023-05-14T06:15:34;50.58;;;25.50;;
70543;SDS011;58097;48.364;-1.224;2023-05-14T06:18:00;48.65;;;25.75;;
70543;SDS011;58097;48.364;-1.224;2023-05-14T06:20:25;52.10;;;26.50;;
70543;SDS011;58097;48.364;-1.224;2023-05-14T06:22:50;57.80;;;27.83;;
70543;SDS011;58097;48.364;-1.224;2023-05-14T06:25:16;51.63;;;26.02;;
70543;SDS011;58097;48.364;-1.224;2023-05-14T06:27:41;55.70;;;26.38;;
70543;SDS011;58097;48.364;-1.224;2023-05-14T06:30:06;54.72;;;28.13;;
70543;SDS011;58097;48.364;-1.224;2023-05-14T06:32:32;53.38;;;25.02;;
70543;SDS011;58097;48.364;-1.224;2023-05-14T06:34:58;50.15;;;25.42;;
70543;SDS011;58097;48.364;-1.224;2023-05-14T06:37:23;50.47;;;26.75;;
70543;SDS011;58097;48.364;-1.224;2023-05-14T06:39:48;51.08;;;24.15;;
70543;SDS011;58097;48.364;-1.224;2023-05-14T06:42:14;51.22;;;25.75;;
70543;SDS011;58097;48.364;-1.224;2023-05-14T06:44:40;47.38;;;23.63;;
70543;SDS011;58097;48.364;-1.224;2023-05-14T06:47:06;48.65;;;26.38;;
70543;SDS011;58097;48.364;-1.224;2023-05-14T06:49:32;51.53;;;24.75;;
70543;SDS011;58097;48.364;-1.224;2023-05-14T06:51:58;53.50;;;25.20;;
70543;SDS011;58097;48.364;-1.224;2023-05-14T06:54:24;46.75;;;25.38;;
70543;SDS011;58097;48.364;-1.224;2023-05-14T06:56:49;53.95;;;26.50;;
70543;SDS011;58097;48.364;-1.224;2023-05-14T06:59:15;48.10;;;25.85;;
70543;SDS011;58097;48.364;-1.224;2023-05-14T07:01:40;50.92;;;25.15;;
70543;SDS011;58097;48.364;-1.224;2023-05-14T07:04:05;48.60;;;24.45;;
70543;SDS011;58097;48.364;-1.224;2023-05-14T07:06:31;44.25;;;24.42;;
70543;SDS011;58097;48.364;-1.224;2023-05-14T07:08:56;46.03;;;23.80;;
70543;SDS011;58097;48.364;-1.224;2023-05-14T07:11:22;45.72;;;24.88;;
70543;SDS011;58097;48.364;-1.224;2023-05-14T07:13:47;44.47;;;24.33;;
70543;SDS011;58097;48.364;-1.224;2023-05-14T07:16:12;54.03;;;26.77;;
70543;SDS011;58097;48.364;-1.224;2023-05-14T07:18:38;51.67;;;26.38;;
70543;SDS011;58097;48.364;-1.224;2023-05-14T07:21:04;51.40;;;25.75;;
70543;SDS011;58097;48.364;-1.224;2023-05-14T07:23:31;46.53;;;24.65;;
70543;SDS011;58097;48.364;-1.224;2023-05-14T07:26:01;48.40;;;26.92;;
70543;SDS011;58097;48.364;-1.224;2023-05-14T07:28:26;47.85;;;24.45;;
70543;SDS011;58097;48.364;-1.224;2023-05-14T07:30:52;49.08;;;26.67;;
70543;SDS011;58097;48.364;-1.224;2023-05-14T07:33:18;54.03;;;27.00;;
70543;SDS011;58097;48.364;-1.224;2023-05-14T07:35:43;45.38;;;25.20;;
70543;SDS011;58097;48.364;-1.224;2023-05-14T07:38:08;51.10;;;26.08;;
70543;SDS011;58097;48.364;-1.224;2023-05-14T07:40:34;53.42;;;25.45;;
70543;SDS011;58097;48.364;-1.224;2023-05-14T07:42:59;47.63;;;25.23;;
70543;SDS011;58097;48.364;-1.224;2023-05-14T07:45:24;45.25;;;24.77;;
70543;SDS011;58097;48.364;-1.224;2023-05-14T07:47:50;49.90;;;23.80;;
70543;SDS011;58097;48.364;-1.224;2023-05-14T07:50:16;40.85;;;23.33;;
70543;SDS011;58097;48.364;-1.224;2023-05-14T07:52:42;43.47;;;24.00;;
70543;SDS011;58097;48.364;-1.224;2023-05-14T07:55:08;41.40;;;22.80;;
70543;SDS011;58097;48.364;-1.224;2023-05-14T07:57:34;47.22;;;24.08;;
70543;SDS011;58097;48.364;-1.224;2023-05-14T07:59:59;43.78;;;24.15;;
70543;SDS011;58097;48.364;-1.224;2023-05-14T08:02:25;44.13;;;23.67;;
70543;SDS011;58097;48.364;-1.224;2023-05-14T08:04:50;47.63;;;25.95;;
70543;SDS011;58097;48.364;-1.224;2023-05-14T08:07:16;45.92;;;25.02;;
70543;SDS011;58097;48.364;-1.224;2023-05-14T08:09:41;46.83;;;24.20;;
70543;SDS011;58097;48.364;-1.224;2023-05-14T08:12:06;43.55;;;24.55;;
70543;SDS011;58097;48.364;-1.224;2023-05-14T08:14:32;46.08;;;24.63;;
70543;SDS011;58097;48.364;-1.224;2023-05-14T08:16:58;46.35;;;22.88;;
70543;SDS011;58097;48.364;-1.224;2023-05-14T08:19:23;45.00;;;24.58;;
70543;SDS011;58097;48.364;-1.224;2023-05-14T08:21:48;43.55;;;25.23;;
70543;SDS011;58097;48.364;-1.224;2023-05-14T08:24:15;51.53;;;24.83;;
70543;SDS011;58097;48.364;-1.224;2023-05-14T08:26:41;47.50;;;26.42;;
70543;SDS011;58097;48.364;-1.224;2023-05-14T08:29:06;40.08;;;22.15;;
70543;SDS011;58097;48.364;-1.224;2023-05-14T08:31:32;43.55;;;23.33;;
70543;SDS011;58097;48.364;-1.224;2023-05-14T08:33:57;45.40;;;24.23;;
70543;SDS011;58097;48.364;-1.224;2023-05-14T08:36:23;39.05;;;23.40;;
70543;SDS011;58097;48.364;-1.224;2023-05-14T08:38:48;41.85;;;24.00;;
70543;SDS011;58097;48.364;-1.224;2023-05-14T08:41:14;43.83;;;22.42;;
70543;SDS011;58097;48.364;-1.224;2023-05-14T08:43:55;39.30;;;22.00;;
70543;SDS011;58097;48.364;-1.224;2023-05-14T08:46:22;36.97;;;21.73;;
70543;SDS011;58097;48.364;-1.224;2023-05-14T08:48:54;40.00;;;21.65;;
70543;SDS011;58097;48.364;-1.224;2023-05-14T08:51:25;38.38;;;22.70;;
70543;SDS011;58097;48.364;-1.224;2023-05-14T08:53:51;41.60;;;23.05;;
70543;SDS011;58097;48.364;-1.224;2023-05-14T08:56:17;37.63;;;22.75;;
70543;SDS011;58097;48.364;-1.224;2023-05-14T08:58:43;36.90;;;20.95;;
70543;SDS011;58097;48.364;-1.224;2023-05-14T09:01:10;40.78;;;22.15;;
70543;SDS011;58097;48.364;-1.224;2023-05-14T09:03:35;40.70;;;22.33;;
70543;SDS011;58097;48.364;-1.224;2023-05-14T09:06:01;39.10;;;21.88;;
70543;SDS011;58097;48.364;-1.224;2023-05-14T09:08:28;40.85;;;20.85;;
70543;SDS011;58097;48.364;-1.224;2023-05-14T09:10:54;41.03;;;22.75;;
70543;SDS011;58097;48.364;-1.224;2023-05-14T09:13:19;33.63;;;19.95;;
70543;SDS011;58097;48.364;-1.224;2023-05-14T09:15:44;36.55;;;21.50;;
70543;SDS011;58097;48.364;-1.224;2023-05-14T09:18:12;40.13;;;21.58;;
70543;SDS011;58097;48.364;-1.224;2023-05-14T09:20:37;32.97;;;20.23;;
70543;SDS011;58097;48.364;-1.224;2023-05-14T09:23:03;37.80;;;19.95;;
70543;SDS011;58097;48.364;-1.224;2023-05-14T09:25:31;32.63;;;19.38;;
70543;SDS011;58097;48.364;-1.224;2023-05-14T09:27:57;35.03;;;20.20;;
70543;SDS011;58097;48.364;-1.224;2023-05-14T09:30:23;34.78;;;20.85;;
70543;SDS011;58097;48.364;-1.224;2023-05-14T09:32:49;37.72;;;21.45;;
70543;SDS011;58097;48.364;-1.224;2023-05-14T09:35:18;33.60;;;19.63;;
70543;SDS011;58097;48.364;-1.224;2023-05-14T09:37:46;35.13;;;19.83;;
70543;SDS011;58097;48.364;-1.224;2023-05-14T09:40:17;33.90;;;20.23;;
70543;SDS011;58097;48.364;-1.224;2023-05-14T09:42:43;38.35;;;22.30;;
70543;SDS011;58097;48.364;-1.224;2023-05-14T09:45:09;35.13;;;21.13;;
70543;SDS011;58097;48.364;-1.224;2023-05-14T09:47:36;29.42;;;18.13;;
70543;SDS011;58097;48.364;-1.224;2023-05-14T09:50:02;31.83;;;20.02;;
70543;SDS011;58097;48.364;-1.224;2023-05-14T09:52:28;34.45;;;20.75;;
70543;SDS011;58097;48.364;-1.224;2023-05-14T09:54:54;30.08;;;18.50;;
70543;SDS011;58097;48.364;-1.224;2023-05-14T09:57:19;29.58;;;19.55;;
70543;SDS011;58097;48.364;-1.224;2023-05-14T09:59:45;26.30;;;18.80;;
70543;SDS011;58097;48.364;-1.224;2023-05-14T10:02:24;34.45;;;20.65;;
70543;SDS011;58097;48.364;-1.224;2023-05-14T10:04:51;29.67;;;18.65;;
70543;SDS011;58097;48.364;-1.224;2023-05-14T10:07:20;31.15;;;18.67;;
70543;SDS011;58097;48.364;-1.224;2023-05-14T10:09:47;30.92;;;19.38;;
70543;SDS011;58097;48.364;-1.224;2023-05-14T10:12:12;34.50;;;19.05;;
70543;SDS011;58097;48.364;-1.224;2023-05-14T10:14:46;32.58;;;21.10;;
70543;SDS011;58097;48.364;-1.224;2023-05-14T10:17:18;35.70;;;21.15;;
70543;SDS011;58097;48.364;-1.224;2023-05-14T10:19:49;42.65;;;22.05;;
70543;SDS011;58097;48.364;-1.224;2023-05-14T10:22:22;40.05;;;20.70;;
70543;SDS011;58097;48.364;-1.224;2023-05-14T10:24:55;32.55;;;19.73;;
70543;SDS011;58097;48.364;-1.224;2023-05-14T10:27:20;33.90;;;22.40;;
70543;SDS011;58097;48.364;-1.224;2023-05-14T10:29:53;32.08;;;20.27;;
70543;SDS011;58097;48.364;-1.224;2023-05-14T10:32:20;28.42;;;18.90;;
70543;SDS011;58097;48.364;-1.224;2023-05-14T10:34:47;34.47;;;21.35;;
70543;SDS011;58097;48.364;-1.224;2023-05-14T10:37:14;33.35;;;20.35;;
70543;SDS011;58097;48.364;-1.224;2023-05-14T10:39:46;30.90;;;21.42;;
70543;SDS011;58097;48.364;-1.224;2023-05-14T10:42:33;34.88;;;20.15;;
70543;SDS011;58097;48.364;-1.224;2023-05-14T10:45:04;32.90;;;20.60;;
70543;SDS011;58097;48.364;-1.224;2023-05-14T10:47:32;29.13;;;18.63;;
70543;SDS011;58097;48.364;-1.224;2023-05-14T10:50:02;31.65;;;19.23;;
70543;SDS011;58097;48.364;-1.224;2023-05-14T10:52:32;35.20;;;18.10;;
70543;SDS011;58097;48.364;-1.224;2023-05-14T10:55:05;30.70;;;17.70;;
70543;SDS011;58097;48.364;-1.224;2023-05-14T10:57:35;27.58;;;17.42;;
70543;SDS011;58097;48.364;-1.224;2023-05-14T11:00:02;29.90;;;18.00;;
70543;SDS011;58097;48.364;-1.224;2023-05-14T11:02:32;32.72;;;18.60;;
70543;SDS011;58097;48.364;-1.224;2023-05-14T11:04:59;29.20;;;18.55;;
70543;SDS011;58097;48.364;-1.224;2023-05-14T11:07:39;30.02;;;18.50;;
70543;SDS011;58097;48.364;-1.224;2023-05-14T11:12:33;33.80;;;19.27;;
70543;SDS011;58097;48.364;-1.224;2023-05-14T11:15:02;26.98;;;16.55;;
70543;SDS011;58097;48.364;-1.224;2023-05-14T11:17:29;31.58;;;18.90;;
70543;SDS011;58097;48.364;-1.224;2023-05-14T11:19:55;28.85;;;17.63;;
70543;SDS011;58097;48.364;-1.224;2023-05-14T11:22:21;32.10;;;17.67;;
70543;SDS011;58097;48.364;-1.224;2023-05-14T11:24:47;25.75;;;18.23;;
70543;SDS011;58097;48.364;-1.224;2023-05-14T11:27:13;34.10;;;19.90;;
70543;SDS011;58097;48.364;-1.224;2023-05-14T11:29:42;22.80;;;16.67;;
70543;SDS011;58097;48.364;-1.224;2023-05-14T11:32:11;30.98;;;18.95;;
70543;SDS011;58097;48.364;-1.224;2023-05-14T11:34:38;31.48;;;19.05;;
70543;SDS011;58097;48.364;-1.224;2023-05-14T11:37:07;25.15;;;16.95;;
70543;SDS011;58097;48.364;-1.224;2023-05-14T11:39:34;27.77;;;17.27;;
70543;SDS011;58097;48.364;-1.224;2023-05-14T11:42:03;27.85;;;18.88;;
70543;SDS011;58097;48.364;-1.224;2023-05-14T11:44:30;32.13;;;18.38;;
70543;SDS011;58097;48.364;-1.224;2023-05-14T11:46:56;28.30;;;18.48;;
70543;SDS011;58097;48.364;-1.224;2023-05-14T11:49:22;31.55;;;17.83;;
70543;SDS011;58097;48.364;-1.224;2023-05-14T11:51:49;28.85;;;17.80;;
70543;SDS011;58097;48.364;-1.224;2023-05-14T11:54:15;31.70;;;17.38;;
70543;SDS011;58097;48.364;-1.224;2023-05-14T11:56:40;29.73;;;19.42;;
70543;SDS011;58097;48.364;-1.224;2023-05-14T11:59:05;36.88;;;20.90;;
70543;SDS011;58097;48.364;-1.224;2023-05-14T12:01:38;33.08;;;20.90;;
70543;SDS011;58097;48.364;-1.224;2023-05-14T12:04:03;31.98;;;18.92;;
70543;SDS011;58097;48.364;-1.224;2023-05-14T12:06:29;31.35;;;18.50;;
70543;SDS011;58097;48.364;-1.224;2023-05-14T12:08:58;32.88;;;17.63;;
70543;SDS011;58097;48.364;-1.224;2023-05-14T12:11:29;29.42;;;18.10;;
70543;SDS011;58097;48.364;-1.224;2023-05-14T12:13:55;29.60;;;18.05;;
70543;SDS011;58097;48.364;-1.224;2023-05-14T12:16:21;31.73;;;18.55;;
70543;SDS011;58097;48.364;-1.224;2023-05-14T12:18:46;28.55;;;18.42;;
70543;SDS011;58097;48.364;-1.224;2023-05-14T12:21:11;29.52;;;18.40;;
70543;SDS011;58097;48.364;-1.224;2023-05-14T12:23:37;27.15;;;17.48;;
70543;SDS011;58097;48.364;-1.224;2023-05-14T12:26:04;28.38;;;18.25;;
70543;SDS011;58097;48.364;-1.224;2023-05-14T12:28:30;30.92;;;16.98;;
70543;SDS011;58097;48.364;-1.224;2023-05-14T12:30:57;26.40;;;17.00;;
70543;SDS011;58097;48.364;-1.224;2023-05-14T12:33:23;30.13;;;17.30;;
70543;SDS011;58097;48.364;-1.224;2023-05-14T12:35:50;31.40;;;20.05;;
70543;SDS011;58097;48.364;-1.224;2023-05-14T12:38:17;35.08;;;18.92;;
70543;SDS011;58097;48.364;-1.224;2023-05-14T12:40:43;32.85;;;18.80;;
70543;SDS011;58097;48.364;-1.224;2023-05-14T12:43:08;28.17;;;17.67;;
70543;SDS011;58097;48.364;-1.224;2023-05-14T12:45:34;26.33;;;17.05;;
70543;SDS011;58097;48.364;-1.224;2023-05-14T12:47:59;27.05;;;16.85;;
70543;SDS011;58097;48.364;-1.224;2023-05-14T12:50:25;27.63;;;15.38;;
70543;SDS011;58097;48.364;-1.224;2023-05-14T12:52:50;30.20;;;16.98;;
70543;SDS011;58097;48.364;-1.224;2023-05-14T12:55:15;26.98;;;16.80;;
70543;SDS011;58097;48.364;-1.224;2023-05-14T12:57:41;26.55;;;16.50;;
70543;SDS011;58097;48.364;-1.224;2023-05-14T13:00:07;32.15;;;18.38;;
70543;SDS011;58097;48.364;-1.224;2023-05-14T13:02:36;28.92;;;17.45;;
70543;SDS011;58097;48.364;-1.224;2023-05-14T13:05:01;30.95;;;18.50;;
70543;SDS011;58097;48.364;-1.224;2023-05-14T13:07:27;30.55;;;17.85;;
70543;SDS011;58097;48.364;-1.224;2023-05-14T13:09:56;31.40;;;17.90;;
70543;SDS011;58097;48.364;-1.224;2023-05-14T13:12:22;24.58;;;16.50;;
70543;SDS011;58097;48.364;-1.224;2023-05-14T13:14:48;32.92;;;19.40;;
70543;SDS011;58097;48.364;-1.224;2023-05-14T13:17:13;31.20;;;19.33;;
70543;SDS011;58097;48.364;-1.224;2023-05-14T13:19:39;31.73;;;19.20;;
70543;SDS011;58097;48.364;-1.224;2023-05-14T13:22:04;28.60;;;18.55;;
70543;SDS011;58097;48.364;-1.224;2023-05-14T13:24:30;29.35;;;17.55;;
70543;SDS011;58097;48.364;-1.224;2023-05-14T13:26:55;33.55;;;19.83;;
70543;SDS011;58097;48.364;-1.224;2023-05-14T13:29:21;31.00;;;18.20;;
70543;SDS011;58097;48.364;-1.224;2023-05-14T13:31:46;28.38;;;18.65;;
70543;SDS011;58097;48.364;-1.224;2023-05-14T13:34:11;25.23;;;16.45;;
70543;SDS011;58097;48.364;-1.224;2023-05-14T13:36:37;29.75;;;18.33;;
70543;SDS011;58097;48.364;-1.224;2023-05-14T13:39:06;25.77;;;16.25;;
70543;SDS011;58097;48.364;-1.224;2023-05-14T13:41:31;26.27;;;16.55;;
70543;SDS011;58097;48.364;-1.224;2023-05-14T13:44:01;28.20;;;17.00;;
70543;SDS011;58097;48.364;-1.224;2023-05-14T13:46:27;32.42;;;17.58;;
70543;SDS011;58097;48.364;-1.224;2023-05-14T13:48:52;24.77;;;15.45;;
70543;SDS011;58097;48.364;-1.224;2023-05-14T13:51:18;27.27;;;15.23;;
70543;SDS011;58097;48.364;-1.224;2023-05-14T13:53:43;31.15;;;17.02;;
70543;SDS011;58097;48.364;-1.224;2023-05-14T13:56:08;28.92;;;16.80;;
70543;SDS011;58097;48.364;-1.224;2023-05-14T13:58:34;31.58;;;16.95;;
70543;SDS011;58097;48.364;-1.224;2023-05-14T14:00:59;24.63;;;14.50;;
70543;SDS011;58097;48.364;-1.224;2023-05-14T14:03:24;23.88;;;13.27;;
70543;SDS011;58097;48.364;-1.224;2023-05-14T14:05:50;22.42;;;13.13;;
70543;SDS011;58097;48.364;-1.224;2023-05-14T14:08:16;26.20;;;14.35;;
70543;SDS011;58097;48.364;-1.224;2023-05-14T14:10:42;19.00;;;12.88;;
70543;SDS011;58097;48.364;-1.224;2023-05-14T14:13:08;23.90;;;14.15;;